キンシャサ の空港の天気 - METARとTAF

キンシャサ/ヌジリ国際空港 ( FZAA / FIH ) - コンゴ民主共和国 キンシャサ
飛行場実況気象(Metar)
観測時間02/17 14:00 WAT (02/17 13:00 UTC)
風向・風速北西 5m/s
視程10km以上
天気現象
少しの雲 雲底高度 730m
気温32℃
湿度59%
気圧1012hPa
METARFZAA 171300Z 32010KT 9999 FEW024 32/23 Q1012 NOSIG
過去の天気等 Google飛行場航空写真 Wunderground天気予報

過去48時間のMETAR

飛行場予報(TAF)
発表時間: 2/17 12:00 WAT (2/17 11:00 UTC)
予報対象時間: 17日13時 WAT ~ 18日19時 WAT
風向・風速北西 5m/s
視程8000m
全天の4割程度の雲 雲底高度 730m
少しの積乱雲 雲底高度 910m
17日17時 WAT ~ 17日21時 WAT に一時的に
天気現象
17日22時 WAT ~ 17日24時 WAT に徐々に
風向・風速南 2m/s
少しの雲 雲底高度 490m
18日11時 WAT ~ 18日13時 WAT に徐々に
風向・風速北北西 6m/s
全天の4割程度の雲 雲底高度 760m
少しの積乱雲 雲底高度 980m
TAF FZAA 171100Z 1712/1818 32010KT 8000 SCT024 FEW030CB
TEMPO 1716/1720 TS
BECMG 1721/1723 18004KT FEW016
BECMG 1810/1812 34012KT SCT025 FEW032CB